Flight Briefing for CMB858

Departure Arrival
Diego Garcia (FJDG)
Click to view FAA NOTAMS
Bahrain International Airport (OBBI)
Click to view FAA NOTAMS
Departure Time Arrival Time
N/A N/A
Aircraft Distance
B757-200SF 2375nm
Departure METAR Arrival METAR
FJDG 271055Z 12008KT 9999 FEW021 BKN240 30/26 A2976 RMK SLP075 T03010258 OBBI 271100Z 01007KT 340V040 CAVOK 37/17 Q1005 NOSIG
Suggested Route
BUMMR L516 KITAL P570 ITURA M762 VAXAS M762 MIVEK P574 RUKOR N571 TUDIS P699 IMGUX ULBEK Y001 LABOV EMISA B457 DENVO DENVO1


View recent IFR Routes data
Notes
USTRANSCOM CONTRACT FLIGHT

Charts and Procedures

Charts for FJDG
No chart available
Charts for OBBI
No chart available

Windy.com Weather Map